Time;durP1;ratioP1;P1;durP2;ratioP2;P2;SDS_P1;SDS_P2;PMS_P1;PMS_P2;Temp;Humidity;BMP_temperature;BMP_pressure;BME280_temperature;BME280_humidity;BME280_pressure;Samples;Min_cycle;Max_cycle;Signal;HPM_P1;HPM_P2
2020/12/23 06:55:11;;;;;;;1999.90;999.90;;;7.20;99.90;;;;;;5115871;27;20650;-48
2020/12/23 06:57:36;;;;;;;1999.90;999.90;;;7.10;99.90;;;;;;5133036;27;20437;-46
2020/12/23 07:00:24;;;;;;;1999.90;999.90;;;7.10;99.90;;;;;;5135024;27;20407;-50
2020/12/23 07:03:19;;;;;;;1999.90;999.90;;;7.10;99.90;;;;;;5121559;28;20997;-49
2020/12/23 07:05:47;;;;;;;1999.90;999.90;;;7.20;99.90;;;;;;5122005;27;20451;-48
2020/12/23 07:08:14;;;;;;;1999.90;999.90;;;7.20;99.90;;;;;;5148930;27;20472;-47
2020/12/23 07:10:43;;;;;;;1999.90;999.90;;;7.30;99.90;;;;;;5131842;27;20452;-48
2020/12/23 07:13:11;;;;;;;1999.90;999.90;;;7.30;99.90;;;;;;5123952;27;20476;-48
2020/12/23 07:15:42;;;;;;;1999.90;999.90;;;7.30;99.90;;;;;;5136469;27;20408;-46
2020/12/23 07:18:11;;;;;;;1999.90;999.90;;;7.30;99.90;;;;;;5127688;27;20401;-48
2020/12/23 07:20:59;;;;;;;1999.90;999.90;;;7.30;99.90;;;;;;5127464;28;20404;-47
2020/12/23 07:23:27;;;;;;;1999.90;999.90;;;7.40;99.90;;;;;;5126379;27;20463;-49
2020/12/23 07:25:54;;;;;;;1999.90;999.90;;;7.50;99.90;;;;;;5111664;28;20493;-46
2020/12/23 07:28:41;;;;;;;1999.90;999.90;;;7.50;99.90;;;;;;5107302;28;20405;-47
2020/12/23 07:31:10;;;;;;;1999.90;999.90;;;7.60;99.90;;;;;;5105382;28;20426;-48
2020/12/23 07:33:39;;;;;;;1999.90;999.90;;;7.60;99.90;;;;;;5113628;28;20906;-48
2020/12/23 07:36:06;;;;;;;1999.90;999.90;;;7.70;99.90;;;;;;5127607;27;20409;-46
2020/12/23 07:38:35;;;;;;;1999.90;999.90;;;7.80;99.90;;;;;;5127533;27;20406;-48
2020/12/23 07:41:04;;;;;;;1999.90;999.90;;;7.80;99.90;;;;;;5118591;27;20481;-47
2020/12/23 07:43:30;;;;;;;1999.90;999.90;;;7.80;99.90;;;;;;5109455;28;20444;-47
2020/12/23 07:45:58;;;;;;;1999.90;999.90;;;7.80;99.90;;;;;;5122535;27;20786;-47
2020/12/23 07:48:29;;;;;;;1999.90;999.90;;;7.90;99.90;;;;;;5127247;27;20978;-49
2020/12/23 07:50:57;;;;;;;1999.90;999.90;;;7.90;99.90;;;;;;5121603;27;20490;-48
2020/12/23 07:53:24;;;;;;;1999.90;999.90;;;7.90;99.90;;;;;;5113365;28;20521;-47
2020/12/23 07:56:01;;;;;;;1999.90;999.90;;;8.00;99.90;;;;;;5109765;28;20439;-47
2020/12/23 07:58:28;;;;;;;1999.90;999.90;;;8.00;99.90;;;;;;5109691;28;20444;-48
2020/12/23 08:00:54;;;;;;;1999.90;999.90;;;8.10;99.90;;;;;;5113700;28;20526;-47
2020/12/23 08:03:35;;;;;;;1999.90;999.90;;;8.00;99.90;;;;;;5132519;27;21151;-47
2020/12/23 08:06:09;;;;;;;1999.90;999.90;;;8.10;99.90;;;;;;5123577;27;20512;-48
2020/12/23 08:08:40;;;;;;;1999.90;999.90;;;8.10;99.90;;;;;;5112342;27;21072;-48
2020/12/23 08:11:13;;;;;;;1999.90;999.90;;;8.10;99.90;;;;;;5106162;28;20437;-47
2020/12/23 08:13:40;;;;;;;1999.90;999.90;;;8.20;99.90;;;;;;5104118;28;20480;-47
2020/12/23 08:16:11;;;;;;;1999.90;999.90;;;8.20;99.90;;;;;;5099738;27;20489;-47
2020/12/23 08:18:39;;;;;;;1999.90;999.90;;;8.30;99.90;;;;;;5104763;28;20753;-48
2020/12/23 08:21:17;;;;;;;1999.90;999.90;;;8.30;99.90;;;;;;5102460;28;20473;-49
2020/12/23 08:23:43;;;;;;;1999.90;999.90;;;8.30;99.90;;;;;;5106064;27;20447;-49
2020/12/23 08:26:11;;;;;;;1999.90;999.90;;;8.40;99.90;;;;;;5106001;27;20933;-49
2020/12/23 08:28:42;;;;;;;1999.90;999.90;;;8.40;99.90;;;;;;5100125;28;20411;-46
2020/12/23 08:31:13;;;;;;;1999.90;999.90;;;8.50;99.90;;;;;;5103557;28;20531;-49
2020/12/23 08:33:41;;;;;;;1999.90;999.90;;;8.50;99.90;;;;;;5101112;28;20481;-49
2020/12/23 08:36:07;;;;;;;1999.90;999.90;;;8.50;99.90;;;;;;5102903;28;20809;-49
2020/12/23 08:38:33;;;;;;;1999.90;999.90;;;8.50;99.90;;;;;;5103150;28;21105;-48
2020/12/23 08:41:00;;;;;;;1999.90;999.90;;;8.50;99.90;;;;;;5101577;28;20450;-48
2020/12/23 08:43:28;;;;;;;1999.90;999.90;;;8.70;99.90;;;;;;5104133;28;20742;-49
2020/12/23 08:45:58;;;;;;;1999.90;999.90;;;8.70;99.90;;;;;;5100977;28;21121;-52
2020/12/23 08:48:26;;;;;;;1999.90;999.90;;;8.70;99.90;;;;;;5102685;27;20655;-50
2020/12/23 08:51:03;;;;;;;1999.90;999.90;;;8.80;99.90;;;;;;5102273;27;20421;-49
2020/12/23 08:53:37;;;;;;;1999.90;999.90;;;8.80;99.90;;;;;;5103096;28;20998;-48
2020/12/23 08:56:21;;;;;;;1999.90;999.90;;;8.90;99.90;;;;;;5103201;28;20499;-51
2020/12/23 08:58:56;;;;;;;1999.90;999.90;;;8.90;99.90;;;;;;5103405;27;20407;-49
2020/12/23 09:01:26;;;;;;;1999.90;999.90;;;8.90;99.90;;;;;;5098757;28;20432;-51
2020/12/23 09:04:11;;;;;;;1999.90;999.90;;;9.00;99.90;;;;;;5101680;28;20535;-49
2020/12/23 09:06:43;;;;;;;1999.90;999.90;;;9.00;99.90;;;;;;5101605;28;20432;-50
2020/12/23 09:09:20;;;;;;;1999.90;999.90;;;9.00;99.90;;;;;;5103280;28;20493;-48
2020/12/23 09:11:48;;;;;;;1999.90;999.90;;;9.00;99.90;;;;;;5097975;28;20442;-47
2020/12/23 09:14:21;;;;;;;1999.90;999.90;;;9.00;99.90;;;;;;5101613;28;20471;-50
2020/12/23 09:17:07;;;;;;;1999.90;999.90;;;9.10;99.90;;;;;;5104439;27;20482;-50
2020/12/23 09:19:54;;;;;;;1999.90;999.90;;;9.20;99.90;;;;;;5103131;27;20439;-51
2020/12/23 09:22:41;;;;;;;1999.90;999.90;;;9.30;99.90;;;;;;5100856;28;20766;-49
2020/12/23 09:25:12;;;;;;;1999.90;999.90;;;9.30;99.90;;;;;;5100289;28;20823;-50
2020/12/23 09:27:37;;;;;;;1999.90;999.90;;;9.40;99.90;;;;;;5102900;28;20455;-49
2020/12/23 09:30:05;;;;;;;1999.90;999.90;;;9.40;99.90;;;;;;5108940;28;20462;-50
2020/12/23 09:32:31;;;;;;;1999.90;999.90;;;9.50;99.90;;;;;;5099859;28;20181;-49
2020/12/23 09:35:16;;;;;;;1999.90;999.90;;;9.60;99.90;;;;;;5102091;28;20574;-50
2020/12/23 09:37:45;;;;;;;1999.90;999.90;;;9.60;99.90;;;;;;5110291;28;20802;-51
2020/12/23 09:40:12;;;;;;;1999.90;999.90;;;9.70;99.90;;;;;;5106372;28;20462;-51
2020/12/23 09:42:39;;;;;;;1999.90;999.90;;;9.80;99.90;;;;;;5097217;28;20433;-49
2020/12/23 09:45:06;;;;;;;1999.90;999.90;;;9.90;99.90;;;;;;5097334;28;20818;-51
2020/12/23 09:47:32;;;;;;;1999.90;999.90;;;10.00;99.90;;;;;;5107501;28;20477;-50
2020/12/23 09:50:00;;;;;;;1999.90;999.90;;;10.00;99.90;;;;;;5105587;27;20838;-49
2020/12/23 09:52:27;;;;;;;1999.90;999.90;;;10.10;99.90;;;;;;5106769;28;20197;-52
2020/12/23 09:54:52;;;;;;;1999.90;999.90;;;10.10;99.90;;;;;;5107556;28;20535;-51
2020/12/23 09:57:18;;;;;;;1999.90;999.90;;;10.20;99.90;;;;;;5121975;27;20413;-50
2020/12/23 09:59:44;;;;;;;1999.90;999.90;;;10.30;99.90;;;;;;5104362;27;20638;-49
2020/12/23 10:02:09;;;;;;;1999.90;999.90;;;10.30;99.90;;;;;;5099890;28;20190;-49
2020/12/23 10:04:35;;;;;;;1999.90;999.90;;;10.30;99.90;;;;;;5099123;28;20711;-50
2020/12/23 10:07:01;;;;;;;1999.90;999.90;;;10.30;99.90;;;;;;5098065;28;20175;-49
2020/12/23 10:09:27;;;;;;;1999.90;999.90;;;10.30;99.90;;;;;;5101913;28;20220;-51
2020/12/23 10:11:53;;;;;;;1999.90;999.90;;;10.30;99.90;;;;;;5104893;28;20482;-49
2020/12/23 10:14:19;;;;;;;1999.90;999.90;;;10.30;99.90;;;;;;5103502;28;20213;-48
2020/12/23 10:16:45;;;;;;;1999.90;999.90;;;10.30;99.90;;;;;;5102118;28;20177;-49
2020/12/23 10:19:10;;;;;;;1999.90;999.90;;;10.30;99.90;;;;;;5100883;28;20184;-49
2020/12/23 15:19:47;;;;;;;1999.90;999.90;;;10.20;99.90;;;;;;5085343;28;21106;-47
2020/12/23 15:22:13;;;;;;;1999.90;999.90;;;10.20;99.90;;;;;;5063788;28;20433;-49
2020/12/23 15:24:39;;;;;;;1999.90;999.90;;;10.20;99.90;;;;;;5059624;28;20292;-49
2020/12/23 15:27:05;;;;;;;1999.90;999.90;;;10.30;99.90;;;;;;5068649;28;20236;-47
2020/12/23 15:29:31;;;;;;;1999.90;999.90;;;10.40;99.90;;;;;;5064855;28;21025;-49
2020/12/23 15:31:58;;;;;;;1999.90;999.90;;;10.40;99.90;;;;;;5060763;28;20199;-47
2020/12/23 15:34:23;;;;;;;1999.90;999.90;;;10.40;99.90;;;;;;5065780;28;20989;-47
2020/12/23 15:36:49;;;;;;;1999.90;999.90;;;10.40;99.90;;;;;;5061496;28;20443;-48
2020/12/23 15:39:15;;;;;;;1999.90;999.90;;;10.50;99.90;;;;;;5056117;28;20211;-48
2020/12/23 15:41:41;;;;;;;1999.90;999.90;;;10.50;99.90;;;;;;5058876;28;20453;-51
2020/12/23 15:44:07;;;;;;;1999.90;999.90;;;10.50;99.90;;;;;;5058995;28;20307;-48
2020/12/23 15:46:33;;;;;;;1999.90;999.90;;;10.50;99.90;;;;;;5056508;28;20557;-48
2020/12/23 15:48:59;;;;;;;1999.90;999.90;;;10.50;99.90;;;;;;5056715;28;20203;-47
2020/12/23 15:51:24;;;;;;;1999.90;999.90;;;10.50;99.90;;;;;;5058108;28;20199;-47
2020/12/23 15:53:50;;;;;;;1999.90;999.90;;;10.60;99.90;;;;;;5057278;28;20473;-49
2020/12/23 15:56:16;;;;;;;1999.90;999.90;;;10.60;99.90;;;;;;5051172;28;20271;-48
2020/12/23 15:58:42;;;;;;;1999.90;999.90;;;10.50;99.90;;;;;;5050375;28;20479;-49
2020/12/23 16:01:13;;;;;;;1999.90;999.90;;;10.50;99.90;;;;;;5053696;28;20183;-48
2020/12/23 16:03:39;;;;;;;1999.90;999.90;;;10.60;99.90;;;;;;5055587;28;20466;-47
2020/12/23 16:06:05;;;;;;;1999.90;999.90;;;10.60;99.90;;;;;;5059890;28;20785;-47
2020/12/23 16:08:31;;;;;;;1999.90;999.90;;;10.60;99.90;;;;;;5066146;28;20410;-46
2020/12/23 16:10:56;;;;;;;1999.90;999.90;;;10.50;99.90;;;;;;5074550;28;20451;-44
2020/12/23 16:13:22;;;;;;;1999.90;999.90;;;10.60;99.90;;;;;;5066881;28;20273;-46
2020/12/23 16:15:49;;;;;;;1999.90;999.90;;;10.50;99.90;;;;;;5059959;28;20184;-45
2020/12/23 16:18:15;;;;;;;1999.90;999.90;;;10.60;99.90;;;;;;5057492;28;20217;-44
2020/12/23 16:20:41;;;;;;;1999.90;999.90;;;10.50;99.90;;;;;;5052281;28;20459;-46
2020/12/23 16:23:07;;;;;;;1999.90;999.90;;;10.50;99.90;;;;;;5068113;28;20417;-46
2020/12/23 16:25:33;;;;;;;1999.90;999.90;;;10.50;99.90;;;;;;5073589;28;20397;-46
2020/12/23 16:27:59;;;;;;;1999.90;999.90;;;10.50;99.90;;;;;;5069072;28;20264;-46
2020/12/23 16:30:25;;;;;;;1999.90;999.90;;;10.50;99.90;;;;;;5052930;28;20535;-46
2020/12/23 16:32:50;;;;;;;1999.90;999.90;;;10.50;99.90;;;;;;5051146;28;20198;-46
2020/12/23 16:35:16;;;;;;;1999.90;999.90;;;10.40;99.90;;;;;;5056385;28;20201;-49
2020/12/23 16:37:42;;;;;;;1999.90;999.90;;;10.40;99.90;;;;;;5056314;28;20633;-48
2020/12/23 16:40:08;;;;;;;1999.90;999.90;;;10.40;99.90;;;;;;5051054;28;20177;-46
2020/12/23 16:42:34;;;;;;;1999.90;999.90;;;10.40;99.90;;;;;;5047403;28;20428;-47
2020/12/23 16:45:00;;;;;;;1999.90;999.90;;;10.40;99.90;;;;;;5039746;28;20440;-45
2020/12/23 16:47:27;;;;;;;1999.90;999.90;;;10.40;99.90;;;;;;5040405;28;20438;-47
2020/12/23 16:49:52;;;;;;;1999.90;999.90;;;10.40;99.90;;;;;;5042382;28;20456;-46
2020/12/23 16:52:18;;;;;;;1999.90;999.90;;;10.40;99.90;;;;;;5041356;28;20449;-46
2020/12/23 16:54:44;;;;;;;1999.90;999.90;;;10.40;99.90;;;;;;5038663;28;20682;-45
2020/12/23 16:57:12;;;;;;;1999.90;999.90;;;10.50;99.90;;;;;;5039170;28;20489;-50
2020/12/23 16:59:40;;;;;;;1999.90;999.90;;;10.40;99.90;;;;;;5036634;28;20476;-46
2020/12/23 17:02:08;;;;;;;1999.90;999.90;;;10.50;99.90;;;;;;5036994;28;20458;-46
2020/12/23 17:04:35;;;;;;;1999.90;999.90;;;10.50;99.90;;;;;;5042796;28;22093;-46
2020/12/23 17:07:02;;;;;;;1999.90;999.90;;;10.50;99.90;;;;;;5035106;28;20454;-47
2020/12/23 17:09:30;;;;;;;1999.90;999.90;;;10.50;99.90;;;;;;5041306;28;20803;-48
2020/12/23 17:11:58;;;;;;;1999.90;999.90;;;10.50;99.90;;;;;;5029605;28;20805;-48
2020/12/23 17:14:25;;;;;;;1999.90;999.90;;;10.50;99.90;;;;;;5031696;28;20456;-51
2020/12/23 17:16:52;;;;;;;1999.90;999.90;;;10.50;99.90;;;;;;5033031;28;20941;-46
2020/12/23 17:19:21;;;;;;;1999.90;999.90;;;10.50;99.90;;;;;;5032697;28;20558;-47
2020/12/23 17:21:47;;;;;;;1999.90;999.90;;;10.50;99.90;;;;;;5036232;28;20496;-47
2020/12/23 17:24:13;;;;;;;1999.90;999.90;;;10.50;99.90;;;;;;5040469;28;20492;-48
2020/12/23 17:26:43;;;;;;;1999.90;999.90;;;10.50;99.90;;;;;;5041434;28;20449;-46
2020/12/23 17:29:09;;;;;;;1999.90;999.90;;;10.50;99.90;;;;;;5040263;28;20444;-47
2020/12/23 17:31:35;;;;;;;1999.90;999.90;;;10.60;99.90;;;;;;5044637;28;20441;-47
2020/12/23 17:34:02;;;;;;;1999.90;999.90;;;10.50;99.90;;;;;;5036393;28;20969;-45
2020/12/23 17:36:30;;;;;;;1999.90;999.90;;;10.50;99.90;;;;;;5036312;28;20449;-47
2020/12/23 17:38:58;;;;;;;1999.90;999.90;;;10.50;99.90;;;;;;5038743;28;20465;-49
2020/12/23 17:41:28;;;;;;;1999.90;999.90;;;10.50;99.90;;;;;;5041854;28;20434;-48
2020/12/23 17:43:53;;;;;;;1999.90;999.90;;;10.50;99.90;;;;;;5050349;28;20461;-46
2020/12/23 17:46:23;;;;;;;1999.90;999.90;;;10.50;99.90;;;;;;5033959;28;20538;-46
2020/12/23 17:48:50;;;;;;;1999.90;999.90;;;10.50;99.90;;;;;;5034043;28;20194;-51
2020/12/23 17:51:23;;;;;;;1999.90;999.90;;;10.50;99.90;;;;;;5037946;28;20458;-49
2020/12/23 17:53:48;;;;;;;1999.90;999.90;;;10.60;99.90;;;;;;5043082;28;21008;-45
2020/12/23 17:56:14;;;;;;;1999.90;999.90;;;10.60;99.90;;;;;;5051007;28;20521;-46
2020/12/23 17:58:40;;;;;;;1999.90;999.90;;;10.60;99.90;;;;;;5049347;28;20314;-46
2020/12/23 18:01:06;;;;;;;1999.90;999.90;;;10.60;99.90;;;;;;5036659;28;20187;-45
2020/12/23 18:03:32;;;;;;;1999.90;999.90;;;10.60;99.90;;;;;;5042288;28;20627;-45
2020/12/23 18:06:02;;;;;;;1999.90;999.90;;;10.60;99.90;;;;;;5047132;28;20534;-47
2020/12/23 18:08:28;;;;;;;1999.90;999.90;;;10.60;99.90;;;;;;5043404;28;20193;-47
2020/12/23 18:10:55;;;;;;;1999.90;999.90;;;10.60;99.90;;;;;;5046053;28;20507;-46
2020/12/23 18:13:20;;;;;;;1999.90;999.90;;;10.60;99.90;;;;;;5040801;28;20204;-46
2020/12/23 18:15:47;;;;;;;1999.90;999.90;;;10.60;99.90;;;;;;5044899;28;20443;-47
2020/12/23 18:18:13;;;;;;;1999.90;999.90;;;10.60;99.90;;;;;;5038934;28;20205;-46
2020/12/23 18:20:39;;;;;;;1999.90;999.90;;;10.60;99.90;;;;;;5043973;28;20778;-46
2020/12/23 18:23:05;;;;;;;1999.90;999.90;;;10.60;99.90;;;;;;5034157;28;20194;-46
2020/12/23 18:25:31;;;;;;;1999.90;999.90;;;10.60;99.90;;;;;;5042026;28;20456;-46
2020/12/23 18:27:57;;;;;;;1999.90;999.90;;;10.50;99.90;;;;;;5040179;28;20454;-45
2020/12/23 18:30:23;;;;;;;1999.90;999.90;;;10.60;99.90;;;;;;5044298;28;20433;-50
2020/12/23 18:32:51;;;;;;;1999.90;999.90;;;10.60;99.90;;;;;;5034275;28;20444;-48
2020/12/23 18:35:16;;;;;;;1999.90;999.90;;;10.60;99.90;;;;;;5036265;28;20705;-48
2020/12/23 18:37:42;;;;;;;1999.90;999.90;;;10.60;99.90;;;;;;5034231;28;20443;-44
2020/12/23 18:40:08;;;;;;;1999.90;999.90;;;10.70;99.90;;;;;;5035944;28;20184;-50
2020/12/23 18:42:34;;;;;;;1999.90;999.90;;;10.60;99.90;;;;;;5034597;28;20213;-49
2020/12/23 18:44:59;;;;;;;1999.90;999.90;;;10.70;99.90;;;;;;5037002;28;20202;-49
2020/12/23 18:47:25;;;;;;;1999.90;999.90;;;10.70;99.90;;;;;;5040197;28;21501;-50
2020/12/23 18:49:51;;;;;;;1999.90;999.90;;;10.70;99.90;;;;;;5040974;28;20673;-46
2020/12/23 18:52:17;;;;;;;1999.90;999.90;;;10.60;99.90;;;;;;5042195;28;20425;-45
2020/12/23 18:54:43;;;;;;;1999.90;999.90;;;10.60;99.90;;;;;;5037362;28;20209;-45
2020/12/23 18:57:08;;;;;;;1999.90;999.90;;;10.60;99.90;;;;;;5034996;28;20442;-51
2020/12/23 18:59:34;;;;;;;1999.90;999.90;;;10.60;99.90;;;;;;5037550;28;20208;-48
2020/12/23 19:02:00;;;;;;;1999.90;999.90;;;10.60;99.90;;;;;;5038681;28;20194;-45
2020/12/23 19:04:26;;;;;;;1999.90;999.90;;;10.70;99.90;;;;;;5035490;28;20591;-45
2020/12/23 19:06:57;;;;;;;1999.90;999.90;;;10.70;99.90;;;;;;5038515;28;20238;-45
2020/12/23 19:09:23;;;;;;;1999.90;999.90;;;10.70;99.90;;;;;;5035256;28;20471;-47
2020/12/23 19:11:49;;;;;;;1999.90;999.90;;;10.70;99.90;;;;;;5037679;28;20936;-45
2020/12/23 19:14:14;;;;;;;1999.90;999.90;;;10.70;99.90;;;;;;5041690;28;20456;-46
2020/12/23 19:16:41;;;;;;;1999.90;999.90;;;10.60;99.90;;;;;;5039350;28;20221;-45
2020/12/23 19:19:07;;;;;;;1999.90;999.90;;;10.60;99.90;;;;;;5038400;28;20259;-51
2020/12/23 19:21:42;;;;;;;1999.90;999.90;;;10.60;99.90;;;;;;5035921;28;20488;-52
2020/12/23 19:24:08;;;;;;;1999.90;999.90;;;10.60;99.90;;;;;;5036461;28;20541;-46
2020/12/23 19:26:39;;;;;;;1999.90;999.90;;;10.60;99.90;;;;;;5037386;28;21006;-46
2020/12/23 19:29:05;;;;;;;1999.90;999.90;;;10.50;99.90;;;;;;5036458;28;20460;-47
2020/12/23 19:31:34;;;;;;;1999.90;999.90;;;10.60;99.90;;;;;;5049210;28;20470;-48
2020/12/23 19:34:00;;;;;;;1999.90;999.90;;;10.60;99.90;;;;;;5034984;28;20462;-50
2020/12/23 19:36:26;;;;;;;1999.90;999.90;;;10.50;99.90;;;;;;5031012;28;20945;-49
2020/12/23 19:38:52;;;;;;;1999.90;999.90;;;10.50;99.90;;;;;;5036578;28;20466;-49
2020/12/23 19:41:18;;;;;;;1999.90;999.90;;;10.50;99.90;;;;;;5035153;28;20451;-49
2020/12/23 19:43:44;;;;;;;1999.90;999.90;;;10.40;99.90;;;;;;5032569;28;20892;-48
2020/12/23 19:46:11;;;;;;;1999.90;999.90;;;10.40;99.90;;;;;;5041466;28;20417;-51
2020/12/23 19:48:37;;;;;;;1999.90;999.90;;;10.40;99.90;;;;;;5035718;28;20435;-49
2020/12/23 19:51:03;;;;;;;1999.90;999.90;;;10.30;99.90;;;;;;5042337;28;20807;-49
2020/12/23 19:53:29;;;;;;;1999.90;999.90;;;10.40;99.90;;;;;;5039908;28;20545;-49
2020/12/23 19:55:55;;;;;;;1999.90;999.90;;;10.40;99.90;;;;;;5044078;28;20832;-49
2020/12/23 19:58:21;;;;;;;1999.90;999.90;;;10.40;99.90;;;;;;5039239;28;20473;-49
2020/12/23 20:00:47;;;;;;;1999.90;999.90;;;10.40;99.90;;;;;;5039400;28;20487;-49
2020/12/23 20:03:13;;;;;;;1999.90;999.90;;;10.40;99.90;;;;;;5042872;28;20840;-49
2020/12/23 20:05:38;;;;;;;1999.90;999.90;;;10.40;99.90;;;;;;5044039;28;20830;-50
2020/12/23 20:08:04;;;;;;;1999.90;999.90;;;10.30;99.90;;;;;;5042604;28;20915;-50
2020/12/23 20:10:30;;;;;;;1999.90;999.90;;;10.30;99.90;;;;;;5042572;28;20183;-47
2020/12/23 20:12:56;;;;;;;1999.90;999.90;;;10.30;99.90;;;;;;5034054;28;20595;-51
2020/12/23 20:15:22;;;;;;;1999.90;999.90;;;10.30;99.90;;;;;;5051862;28;20440;-48
2020/12/23 20:17:48;;;;;;;1999.90;999.90;;;10.30;99.90;;;;;;5043949;28;20202;-48
2020/12/23 20:20:17;;;;;;;1999.90;999.90;;;10.30;99.90;;;;;;5041923;28;20181;-50
2020/12/23 20:22:44;;;;;;;1999.90;999.90;;;10.30;99.90;;;;;;5044716;28;20191;-47
2020/12/23 20:25:10;;;;;;;1999.90;999.90;;;10.30;99.90;;;;;;5045241;28;20544;-47
2020/12/23 20:27:41;;;;;;;1999.90;999.90;;;10.20;99.90;;;;;;5046082;28;20512;-49
2020/12/23 20:30:09;;;;;;;1999.90;999.90;;;10.20;99.90;;;;;;5047379;28;20441;-47
2020/12/23 20:32:37;;;;;;;1999.90;999.90;;;10.20;99.90;;;;;;5042913;28;20422;-47
2020/12/23 20:35:03;;;;;;;1999.90;999.90;;;10.10;99.90;;;;;;5038954;28;20470;-48
2020/12/23 20:37:29;;;;;;;1999.90;999.90;;;10.10;99.90;;;;;;5042607;28;20447;-48
2020/12/23 20:39:55;;;;;;;1999.90;999.90;;;10.10;99.90;;;;;;5047172;28;20477;-48
2020/12/23 20:42:20;;;;;;;1999.90;999.90;;;10.10;99.90;;;;;;5037670;28;20195;-49
2020/12/23 20:44:46;;;;;;;1999.90;999.90;;;10.00;99.90;;;;;;5045885;28;20315;-48
2020/12/23 20:47:14;;;;;;;1999.90;999.90;;;10.00;99.90;;;;;;5039789;28;20188;-48
2020/12/23 20:49:41;;;;;;;1999.90;999.90;;;10.00;99.90;;;;;;5039563;28;20493;-47
2020/12/23 20:52:09;;;;;;;1999.90;999.90;;;10.00;99.90;;;;;;5034468;28;20455;-49
2020/12/23 20:54:37;;;;;;;1999.90;999.90;;;9.90;99.90;;;;;;5040012;28;20815;-48
2020/12/23 20:57:03;;;;;;;1999.90;999.90;;;9.90;99.90;;;;;;5040998;28;20444;-48
2020/12/23 20:59:30;;;;;;;1999.90;999.90;;;9.90;99.90;;;;;;5041446;28;20469;-48
2020/12/23 21:01:56;;;;;;;1999.90;999.90;;;9.90;99.90;;;;;;5040368;28;21093;-48
2020/12/23 21:04:22;;;;;;;1999.90;999.90;;;9.90;99.90;;;;;;5041352;28;20545;-48
2020/12/23 21:06:48;;;;;;;1999.90;999.90;;;9.90;99.90;;;;;;5033132;28;20497;-50
2020/12/23 21:09:15;;;;;;;1999.90;999.90;;;9.90;99.90;;;;;;5040998;28;20453;-48
2020/12/23 21:11:47;;;;;;;1999.90;999.90;;;9.90;99.90;;;;;;5037281;28;20441;-47
2020/12/23 21:14:14;;;;;;;1999.90;999.90;;;9.80;99.90;;;;;;5042135;28;20507;-49
2020/12/23 21:16:40;;;;;;;1999.90;999.90;;;9.80;99.90;;;;;;5039111;28;20443;-47
2020/12/23 21:19:06;;;;;;;1999.90;999.90;;;9.90;99.90;;;;;;5036115;28;20473;-48
2020/12/23 21:21:31;;;;;;;1999.90;999.90;;;9.90;99.90;;;;;;5044180;28;20521;-47
2020/12/23 21:23:57;;;;;;;1999.90;999.90;;;9.90;99.90;;;;;;5047565;28;20227;-49
2020/12/23 21:26:23;;;;;;;1999.90;999.90;;;9.80;99.90;;;;;;5041550;28;20188;-47
2020/12/23 21:28:49;;;;;;;1999.90;999.90;;;9.80;99.90;;;;;;5038153;28;20184;-48
2020/12/23 21:31:22;;;;;;;1999.90;999.90;;;9.80;99.90;;;;;;5037930;28;20193;-48
2020/12/23 21:33:48;;;;;;;1999.90;999.90;;;9.90;99.90;;;;;;5032443;28;20211;-48
2020/12/23 21:36:14;;;;;;;1999.90;999.90;;;9.90;99.90;;;;;;5039347;28;20513;-49
2020/12/23 21:38:39;;;;;;;1999.90;999.90;;;9.90;99.90;;;;;;5034258;28;20208;-48
2020/12/23 21:41:05;;;;;;;1999.90;999.90;;;9.90;99.90;;;;;;5034826;28;20189;-47
2020/12/23 21:43:31;;;;;;;1999.90;999.90;;;10.00;99.90;;;;;;5038393;28;20202;-48
2020/12/23 21:45:57;;;;;;;1999.90;999.90;;;10.00;99.90;;;;;;5036321;28;20473;-47
2020/12/23 21:48:22;;;;;;;1999.90;999.90;;;10.00;99.90;;;;;;5039774;28;20183;-48
2020/12/23 21:50:48;;;;;;;1999.90;999.90;;;10.00;99.90;;;;;;5035497;28;20193;-50
2020/12/23 21:53:14;;;;;;;1999.90;999.90;;;10.00;99.90;;;;;;5032966;28;20190;-47
2020/12/23 21:55:40;;;;;;;1999.90;999.90;;;9.90;99.90;;;;;;5039655;28;20983;-47
2020/12/23 21:58:05;;;;;;;1999.90;999.90;;;9.90;99.90;;;;;;5038476;28;20261;-49
2020/12/23 22:00:31;;;;;;;1999.90;999.90;;;9.90;99.90;;;;;;5037444;28;20564;-47
2020/12/23 22:02:56;;;;;;;1999.90;999.90;;;9.90;99.90;;;;;;5037044;28;20207;-48
2020/12/23 22:05:22;;;;;;;1999.90;999.90;;;9.80;99.90;;;;;;5041489;28;20206;-48
2020/12/23 22:07:48;;;;;;;1999.90;999.90;;;9.80;99.90;;;;;;5034780;28;20199;-47
2020/12/23 22:10:13;;;;;;;1999.90;999.90;;;9.80;99.90;;;;;;5040609;28;20258;-48
2020/12/23 22:12:39;;;;;;;1999.90;999.90;;;9.70;99.90;;;;;;5043325;28;20823;-47
2020/12/23 22:15:07;;;;;;;1999.90;999.90;;;9.70;99.90;;;;;;5038769;28;20199;-47
2020/12/23 22:17:32;;;;;;;1999.90;999.90;;;9.70;99.90;;;;;;5038655;28;20608;-48
2020/12/23 22:19:59;;;;;;;1999.90;999.90;;;9.70;99.90;;;;;;5042171;28;20461;-48
2020/12/23 22:22:25;;;;;;;1999.90;999.90;;;9.70;99.90;;;;;;5047879;28;20170;-47
2020/12/23 22:24:51;;;;;;;1999.90;999.90;;;9.70;99.90;;;;;;5045307;28;20507;-48
2020/12/23 22:27:16;;;;;;;1999.90;999.90;;;9.80;99.90;;;;;;5051480;28;20602;-45
2020/12/23 22:29:42;;;;;;;1999.90;999.90;;;9.90;99.90;;;;;;5035503;28;20213;-47
2020/12/23 22:32:08;;;;;;;1999.90;999.90;;;9.90;99.90;;;;;;5035662;28;20183;-46
2020/12/23 22:34:34;;;;;;;1999.90;999.90;;;9.80;99.90;;;;;;5044027;28;20258;-48
2020/12/23 22:36:59;;;;;;;1999.90;999.90;;;9.80;99.90;;;;;;5050407;28;20454;-48
2020/12/23 22:39:25;;;;;;;1999.90;999.90;;;9.80;99.90;;;;;;5038697;28;20578;-49
2020/12/23 22:41:51;;;;;;;1999.90;999.90;;;9.80;99.90;;;;;;5049646;28;20204;-48
2020/12/23 22:44:17;;;;;;;1999.90;999.90;;;9.70;99.90;;;;;;5048214;28;20208;-47
2020/12/23 22:46:45;;;;;;;1999.90;999.90;;;9.70;99.90;;;;;;5050030;28;20418;-48
2020/12/23 22:49:11;;;;;;;1999.90;999.90;;;9.70;99.90;;;;;;5035786;28;20197;-48
2020/12/23 22:51:37;;;;;;;1999.90;999.90;;;9.70;99.90;;;;;;5029747;28;20946;-47
2020/12/23 22:54:03;;;;;;;1999.90;999.90;;;9.60;99.90;;;;;;5035455;28;20298;-46
2020/12/23 22:56:28;;;;;;;1999.90;999.90;;;9.60;99.90;;;;;;5043864;28;20540;-48
2020/12/23 22:58:54;;;;;;;1999.90;999.90;;;9.60;99.90;;;;;;5030178;28;20296;-47
2020/12/23 23:01:20;;;;;;;1999.90;999.90;;;9.60;99.90;;;;;;5032817;28;20180;-48
2020/12/23 23:03:47;;;;;;;1999.90;999.90;;;9.70;99.90;;;;;;5050751;28;20256;-47
2020/12/23 23:06:13;;;;;;;1999.90;999.90;;;9.70;99.90;;;;;;5046976;28;20269;-47
2020/12/23 23:08:39;;;;;;;1999.90;999.90;;;9.60;99.90;;;;;;5045837;28;20783;-47
2020/12/23 23:11:07;;;;;;;1999.90;999.90;;;9.60;99.90;;;;;;5046677;28;20493;-48
2020/12/23 23:13:32;;;;;;;1999.90;999.90;;;9.60;99.90;;;;;;5039081;28;20469;-47
2020/12/23 23:15:58;;;;;;;1999.90;999.90;;;9.60;99.90;;;;;;5034987;28;20509;-47
2020/12/23 23:18:24;;;;;;;1999.90;999.90;;;9.60;99.90;;;;;;5029655;28;20219;-48
2020/12/23 23:20:50;;;;;;;1999.90;999.90;;;9.60;99.90;;;;;;5029266;28;20905;-47
2020/12/23 23:23:16;;;;;;;1999.90;999.90;;;9.60;99.90;;;;;;5049969;28;20447;-48
2020/12/23 23:25:42;;;;;;;1999.90;999.90;;;9.70;99.90;;;;;;5035439;28;20187;-46
2020/12/23 23:28:08;;;;;;;1999.90;999.90;;;9.70;99.90;;;;;;5029652;28;20416;-48
2020/12/23 23:30:34;;;;;;;1999.90;999.90;;;9.60;99.90;;;;;;5034232;28;20217;-47
2020/12/23 23:33:00;;;;;;;1999.90;999.90;;;9.70;99.90;;;;;;5041724;28;20195;-47
2020/12/23 23:35:26;;;;;;;1999.90;999.90;;;9.70;99.90;;;;;;5047864;28;20452;-49
2020/12/23 23:37:52;;;;;;;1999.90;999.90;;;9.70;99.90;;;;;;5042273;28;20979;-47
2020/12/23 23:40:18;;;;;;;1999.90;999.90;;;9.70;99.90;;;;;;5059773;28;20424;-48
